sensor_id;sensor_type;location;lat;lon;timestamp;P1;durP1;ratioP1;P2;durP2;ratioP2
19364;SDS011;9818;48.382;10.850;2022-11-09T07:15:51;3.80;;;3.27;;
19364;SDS011;9818;48.382;10.850;2022-11-09T07:18:21;3.60;;;3.10;;
19364;SDS011;9818;48.382;10.850;2022-11-09T08:52:59;7.50;;;2.97;;
19364;SDS011;9818;48.382;10.850;2022-11-09T08:55:28;3.10;;;2.50;;
19364;SDS011;9818;48.382;10.850;2022-11-09T08:57:58;3.00;;;2.50;;
19364;SDS011;9818;48.382;10.850;2022-11-09T09:00:30;2.53;;;2.30;;
19364;SDS011;9818;48.382;10.850;2022-11-09T09:03:01;3.87;;;2.37;;
19364;SDS011;9818;48.382;10.850;2022-11-09T09:05:30;3.67;;;2.30;;
19364;SDS011;9818;48.382;10.850;2022-11-09T09:07:59;3.00;;;2.40;;
19364;SDS011;9818;48.382;10.850;2022-11-09T09:10:29;3.53;;;2.53;;
19364;SDS011;9818;48.382;10.850;2022-11-09T09:12:59;5.33;;;2.50;;
19364;SDS011;9818;48.382;10.850;2022-11-09T09:15:30;6.50;;;2.20;;
19364;SDS011;9818;48.382;10.850;2022-11-09T09:17:59;3.07;;;2.20;;
19364;SDS011;9818;48.382;10.850;2022-11-09T09:22:57;2.93;;;2.27;;
19364;SDS011;9818;48.382;10.850;2022-11-09T09:25:26;3.63;;;2.40;;
19364;SDS011;9818;48.382;10.850;2022-11-09T09:27:55;6.03;;;2.37;;
19364;SDS011;9818;48.382;10.850;2022-11-09T09:30:24;2.57;;;2.10;;
19364;SDS011;9818;48.382;10.850;2022-11-09T09:32:58;2.80;;;2.30;;
19364;SDS011;9818;48.382;10.850;2022-11-09T09:35:27;2.53;;;2.03;;
19364;SDS011;9818;48.382;10.850;2022-11-09T09:37:56;2.93;;;2.20;;
19364;SDS011;9818;48.382;10.850;2022-11-09T09:40:29;2.23;;;1.80;;
19364;SDS011;9818;48.382;10.850;2022-11-09T09:43:01;3.60;;;2.23;;
19364;SDS011;9818;48.382;10.850;2022-11-09T09:45:31;2.33;;;2.10;;
19364;SDS011;9818;48.382;10.850;2022-11-09T09:48:12;2.47;;;1.90;;
19364;SDS011;9818;48.382;10.850;2022-11-09T09:50:54;2.17;;;1.80;;
19364;SDS011;9818;48.382;10.850;2022-11-09T09:53:29;2.40;;;1.50;;
19364;SDS011;9818;48.382;10.850;2022-11-09T09:56:01;3.00;;;1.70;;
19364;SDS011;9818;48.382;10.850;2022-11-09T09:58:33;2.47;;;1.60;;
19364;SDS011;9818;48.382;10.850;2022-11-09T10:01:08;2.10;;;1.70;;
19364;SDS011;9818;48.382;10.850;2022-11-09T10:03:43;5.53;;;1.73;;
19364;SDS011;9818;48.382;10.850;2022-11-09T10:06:17;1.67;;;1.57;;
19364;SDS011;9818;48.382;10.850;2022-11-09T10:09:04;1.97;;;1.67;;
19364;SDS011;9818;48.382;10.850;2022-11-09T10:11:44;1.97;;;1.70;;
19364;SDS011;9818;48.382;10.850;2022-11-09T10:14:39;2.07;;;1.70;;
19364;SDS011;9818;48.382;10.850;2022-11-09T10:17:18;2.07;;;1.73;;
19364;SDS011;9818;48.382;10.850;2022-11-09T10:19:58;4.20;;;1.70;;
19364;SDS011;9818;48.382;10.850;2022-11-09T10:22:41;2.70;;;1.53;;
19364;SDS011;9818;48.382;10.850;2022-11-09T10:25:18;2.43;;;1.83;;
19364;SDS011;9818;48.382;10.850;2022-11-09T10:27:51;2.93;;;1.77;;
19364;SDS011;9818;48.382;10.850;2022-11-09T10:30:22;2.70;;;2.00;;
19364;SDS011;9818;48.382;10.850;2022-11-09T10:32:53;3.03;;;2.17;;
19364;SDS011;9818;48.382;10.850;2022-11-09T10:35:27;3.97;;;1.80;;
19364;SDS011;9818;48.382;10.850;2022-11-09T10:37:57;2.07;;;1.80;;
19364;SDS011;9818;48.382;10.850;2022-11-09T10:40:27;1.90;;;1.70;;
19364;SDS011;9818;48.382;10.850;2022-11-09T10:42:59;1.93;;;1.60;;
19364;SDS011;9818;48.382;10.850;2022-11-09T10:45:29;2.63;;;1.60;;
19364;SDS011;9818;48.382;10.850;2022-11-09T10:47:59;3.43;;;1.90;;
19364;SDS011;9818;48.382;10.850;2022-11-09T10:50:32;2.07;;;1.80;;
19364;SDS011;9818;48.382;10.850;2022-11-09T10:53:09;1.70;;;1.57;;
19364;SDS011;9818;48.382;10.850;2022-11-09T10:55:50;1.87;;;1.53;;
19364;SDS011;9818;48.382;10.850;2022-11-09T10:58:25;2.00;;;1.70;;
19364;SDS011;9818;48.382;10.850;2022-11-09T11:00:59;2.30;;;1.80;;
19364;SDS011;9818;48.382;10.850;2022-11-09T11:03:31;3.17;;;1.90;;
19364;SDS011;9818;48.382;10.850;2022-11-09T11:06:06;2.33;;;1.60;;
19364;SDS011;9818;48.382;10.850;2022-11-09T11:08:43;5.00;;;1.90;;
19364;SDS011;9818;48.382;10.850;2022-11-09T11:11:16;3.40;;;1.60;;
19364;SDS011;9818;48.382;10.850;2022-11-09T11:13:50;2.27;;;1.70;;
19364;SDS011;9818;48.382;10.850;2022-11-09T11:16:32;1.60;;;1.40;;
19364;SDS011;9818;48.382;10.850;2022-11-09T11:19:02;1.60;;;1.50;;
19364;SDS011;9818;48.382;10.850;2022-11-09T11:21:34;2.47;;;1.80;;
19364;SDS011;9818;48.382;10.850;2022-11-09T11:24:13;1.53;;;1.43;;
19364;SDS011;9818;48.382;10.850;2022-11-09T11:26:51;2.00;;;1.80;;
19364;SDS011;9818;48.382;10.850;2022-11-09T11:29:28;5.23;;;1.77;;
19364;SDS011;9818;48.382;10.850;2022-11-09T11:32:06;2.53;;;1.83;;
19364;SDS011;9818;48.382;10.850;2022-11-09T11:34:38;2.00;;;1.80;;
19364;SDS011;9818;48.382;10.850;2022-11-09T11:37:15;2.27;;;1.77;;
19364;SDS011;9818;48.382;10.850;2022-11-09T11:39:57;2.60;;;1.60;;
19364;SDS011;9818;48.382;10.850;2022-11-09T11:45:40;1.53;;;1.40;;
19364;SDS011;9818;48.382;10.850;2022-11-09T11:48:21;1.63;;;1.53;;
19364;SDS011;9818;48.382;10.850;2022-11-09T11:51:15;2.90;;;1.80;;
19364;SDS011;9818;48.382;10.850;2022-11-09T11:53:51;1.70;;;1.60;;
19364;SDS011;9818;48.382;10.850;2022-11-09T11:56:25;2.60;;;1.73;;
19364;SDS011;9818;48.382;10.850;2022-11-09T11:59:01;2.13;;;1.77;;
19364;SDS011;9818;48.382;10.850;2022-11-09T12:01:48;1.50;;;1.40;;
19364;SDS011;9818;48.382;10.850;2022-11-09T12:04:36;2.50;;;1.80;;
19364;SDS011;9818;48.382;10.850;2022-11-09T12:07:19;2.00;;;1.63;;
19364;SDS011;9818;48.382;10.850;2022-11-09T12:10:02;1.80;;;1.57;;
19364;SDS011;9818;48.382;10.850;2022-11-09T12:12:50;2.57;;;1.70;;
19364;SDS011;9818;48.382;10.850;2022-11-09T12:15:30;2.60;;;1.60;;
19364;SDS011;9818;48.382;10.850;2022-11-09T12:18:12;3.37;;;1.87;;
19364;SDS011;9818;48.382;10.850;2022-11-09T12:20:51;3.13;;;1.70;;
19364;SDS011;9818;48.382;10.850;2022-11-09T12:23:28;2.43;;;1.60;;
19364;SDS011;9818;48.382;10.850;2022-11-09T12:26:15;2.17;;;1.50;;
19364;SDS011;9818;48.382;10.850;2022-11-09T12:28:56;1.73;;;1.47;;
19364;SDS011;9818;48.382;10.850;2022-11-09T12:31:38;1.83;;;1.47;;
19364;SDS011;9818;48.382;10.850;2022-11-09T12:34:18;2.87;;;1.73;;
19364;SDS011;9818;48.382;10.850;2022-11-09T12:36:53;1.53;;;1.40;;
19364;SDS011;9818;48.382;10.850;2022-11-09T12:39:25;1.73;;;1.60;;
19364;SDS011;9818;48.382;10.850;2022-11-09T12:42:02;1.97;;;1.43;;
19364;SDS011;9818;48.382;10.850;2022-11-09T12:44:34;1.77;;;1.50;;
19364;SDS011;9818;48.382;10.850;2022-11-09T12:47:07;1.50;;;1.40;;
19364;SDS011;9818;48.382;10.850;2022-11-09T12:49:40;1.80;;;1.43;;
19364;SDS011;9818;48.382;10.850;2022-11-09T12:52:11;2.53;;;1.60;;
19364;SDS011;9818;48.382;10.850;2022-11-09T12:54:44;2.27;;;1.60;;
19364;SDS011;9818;48.382;10.850;2022-11-09T12:57:19;1.63;;;1.50;;
19364;SDS011;9818;48.382;10.850;2022-11-09T12:59:51;3.43;;;1.50;;
19364;SDS011;9818;48.382;10.850;2022-11-09T13:02:23;1.90;;;1.57;;
19364;SDS011;9818;48.382;10.850;2022-11-09T13:04:59;2.23;;;1.50;;
19364;SDS011;9818;48.382;10.850;2022-11-09T13:07:39;2.97;;;1.67;;
19364;SDS011;9818;48.382;10.850;2022-11-09T13:10:21;1.53;;;1.27;;
19364;SDS011;9818;48.382;10.850;2022-11-09T13:13:22;1.83;;;1.50;;
19364;SDS011;9818;48.382;10.850;2022-11-09T13:16:05;2.93;;;1.83;;
19364;SDS011;9818;48.382;10.850;2022-11-09T13:18:47;2.97;;;1.70;;
19364;SDS011;9818;48.382;10.850;2022-11-09T13:21:32;1.70;;;1.60;;
19364;SDS011;9818;48.382;10.850;2022-11-09T13:27:02;1.53;;;1.40;;
19364;SDS011;9818;48.382;10.850;2022-11-09T13:32:22;1.87;;;1.40;;
19364;SDS011;9818;48.382;10.850;2022-11-09T13:34:53;3.60;;;1.80;;
19364;SDS011;9818;48.382;10.850;2022-11-09T13:43:13;4.07;;;1.57;;
19364;SDS011;9818;48.382;10.850;2022-11-09T13:45:47;2.90;;;1.57;;
19364;SDS011;9818;48.382;10.850;2022-11-09T13:51:14;2.30;;;1.60;;
19364;SDS011;9818;48.382;10.850;2022-11-09T13:53:53;1.50;;;1.40;;
19364;SDS011;9818;48.382;10.850;2022-11-09T13:56:27;2.03;;;1.57;;
19364;SDS011;9818;48.382;10.850;2022-11-09T13:59:03;2.00;;;1.60;;
19364;SDS011;9818;48.382;10.850;2022-11-09T14:01:47;1.80;;;1.67;;
19364;SDS011;9818;48.382;10.850;2022-11-09T14:04:19;2.37;;;1.70;;
19364;SDS011;9818;48.382;10.850;2022-11-09T14:06:58;2.00;;;1.80;;
19364;SDS011;9818;48.382;10.850;2022-11-09T14:09:31;2.20;;;1.50;;
19364;SDS011;9818;48.382;10.850;2022-11-09T14:12:11;2.43;;;1.93;;
19364;SDS011;9818;48.382;10.850;2022-11-09T14:14:56;2.60;;;1.70;;
19364;SDS011;9818;48.382;10.850;2022-11-09T14:17:35;2.27;;;1.97;;
19364;SDS011;9818;48.382;10.850;2022-11-09T14:20:12;2.20;;;1.90;;
19364;SDS011;9818;48.382;10.850;2022-11-09T14:22:48;5.43;;;2.20;;
19364;SDS011;9818;48.382;10.850;2022-11-09T14:25:19;2.93;;;2.00;;
19364;SDS011;9818;48.382;10.850;2022-11-09T14:27:50;4.07;;;1.90;;
19364;SDS011;9818;48.382;10.850;2022-11-09T14:30:25;2.07;;;1.80;;
19364;SDS011;9818;48.382;10.850;2022-11-09T14:32:57;1.87;;;1.70;;
19364;SDS011;9818;48.382;10.850;2022-11-09T14:35:27;3.30;;;2.00;;
19364;SDS011;9818;48.382;10.850;2022-11-09T14:37:57;2.40;;;1.93;;
19364;SDS011;9818;48.382;10.850;2022-11-09T14:40:28;2.70;;;1.97;;
19364;SDS011;9818;48.382;10.850;2022-11-09T14:42:59;2.10;;;1.90;;
19364;SDS011;9818;48.382;10.850;2022-11-09T14:45:32;2.83;;;2.33;;
19364;SDS011;9818;48.382;10.850;2022-11-09T14:48:03;2.57;;;2.30;;
19364;SDS011;9818;48.382;10.850;2022-11-09T14:50:34;3.67;;;2.40;;
19364;SDS011;9818;48.382;10.850;2022-11-09T14:53:04;3.50;;;2.43;;
19364;SDS011;9818;48.382;10.850;2022-11-09T14:55:34;3.33;;;2.50;;
19364;SDS011;9818;48.382;10.850;2022-11-09T14:58:08;4.10;;;2.90;;
19364;SDS011;9818;48.382;10.850;2022-11-09T15:00:39;3.23;;;2.80;;
19364;SDS011;9818;48.382;10.850;2022-11-09T15:06:01;4.67;;;2.93;;
19364;SDS011;9818;48.382;10.850;2022-11-09T15:08:31;4.10;;;3.20;;
19364;SDS011;9818;48.382;10.850;2022-11-09T15:11:01;4.97;;;3.00;;
19364;SDS011;9818;48.382;10.850;2022-11-09T15:13:30;4.43;;;2.93;;
19364;SDS011;9818;48.382;10.850;2022-11-09T15:16:02;4.80;;;3.03;;
19364;SDS011;9818;48.382;10.850;2022-11-09T15:18:35;4.50;;;2.93;;
19364;SDS011;9818;48.382;10.850;2022-11-09T15:23:41;5.40;;;3.10;;
19364;SDS011;9818;48.382;10.850;2022-11-09T15:26:28;4.10;;;2.80;;
19364;SDS011;9818;48.382;10.850;2022-11-09T15:29:02;3.50;;;2.67;;
19364;SDS011;9818;48.382;10.850;2022-11-09T15:32:10;3.57;;;2.87;;
19364;SDS011;9818;48.382;10.850;2022-11-09T15:49:58;2.53;;;2.17;;
19364;SDS011;9818;48.382;10.850;2022-11-09T15:52:27;4.03;;;2.37;;
19364;SDS011;9818;48.382;10.850;2022-11-09T15:54:56;2.80;;;2.27;;
19364;SDS011;9818;48.382;10.850;2022-11-09T15:57:25;3.60;;;2.23;;
19364;SDS011;9818;48.382;10.850;2022-11-09T15:59:53;2.80;;;2.25;;
19364;SDS011;9818;48.382;10.850;2022-11-09T20:28:59;5.47;;;4.20;;
19364;SDS011;9818;48.382;10.850;2022-11-09T20:31:27;5.03;;;4.53;;
19364;SDS011;9818;48.382;10.850;2022-11-09T20:33:56;5.03;;;4.47;;
19364;SDS011;9818;48.382;10.850;2022-11-09T20:36:26;4.87;;;4.10;;
19364;SDS011;9818;48.382;10.850;2022-11-09T20:38:57;4.63;;;4.07;;
